Pagrindinis puslapis
METAR-TAF:

METAR-TAF

Oro uostai :

Kuantan, Malaizija

platuma: 03-37N, ilguma: 103-13E, Aukštis: 18 m

Dabartinis oras

Ataskaita buvo paskelbta 1 valandą ir 6 minutes, ne 11:00 UTC
Ramus vėjas
Temperatūra 25°C
Drėgmė 94%
Slėgis 1008 hPa
Matomumas: 6000 m
Mažai debesys ne aukštis 1700 ft, Liūtiniai kamuoliniai debesys.
Išsisklaidę debesys ne aukštis 2400 ft
perkūnija, lietus

METAR: WMKD 041100Z 00000KT 6000 -TSRA FEW017CB SCT024 25/24 Q1008 TEMPO 9000 -RA

Laikas: 20:06 (12:06 UTC)


TAF: trūkstamas

Orai ataskaitas ir orų prognozės (METAR, TAF).

turimą stotys yra geltonos ir raudonos taškus žemėlapyje.

Perkelti pele per norėdami pamatyti stoties vardą.

Tada spustelėkite, norėdami matyti oro stebėjimo ir prognozės.

Norėdami pakeisti žemėlapį: spustelėkite ant žalios mygtukų su juodo kryžiaus žemyn,; žalią mygtuką su brūkšneliu, jei norite nutolinti; arba žalių rodyklių gretimoms žemėlapius.


METAR-TAF: